Time;durP1;ratioP1;P1;durP2;ratioP2;P2;SDS_P1;SDS_P2;PMS_P1;PMS_P2;Temp;Humidity;BMP_temperature;BMP_pressure;BME280_temperature;BME280_humidity;BME280_pressure;Samples;Min_cycle;Max_cycle;Signal;HPM_P1;HPM_P2
2022/07/18 00:02:12;;;;;;;;;;;24.40;61.00;;;;;;5036263;28;19948;-96
2022/07/18 00:04:38;;;;;;;;;;;24.50;64.10;;;;;;5037840;28;19939;-96
2022/07/18 00:07:04;;;;;;;;;;;24.50;63.20;;;;;;5036224;28;19971;-96
2022/07/18 00:09:29;;;;;;;;;;;24.50;64.90;;;;;;5037787;28;19944;-96
2022/07/18 00:11:55;;;;;;;;;;;24.40;64.00;;;;;;5037708;28;20067;-96
2022/07/18 00:14:21;;;;;;;;;;;24.40;64.90;;;;;;5037881;28;20026;-96
2022/07/18 00:16:46;;;;;;;;;;;24.40;64.40;;;;;;5037317;28;19938;-96
2022/07/18 00:19:12;;;;;;;;;;;24.30;64.70;;;;;;5037562;28;19945;-96
2022/07/18 00:21:38;;;;;;;;;;;24.30;65.70;;;;;;5037513;28;19944;-96
2022/07/18 00:24:03;;;;;;;;;;;24.10;66.70;;;;;;5037487;28;19984;-96
2022/07/18 00:26:29;;;;;;;;;;;24.10;66.30;;;;;;5037427;28;20291;-96
2022/07/18 00:28:54;;;;;;;;;;;24.10;65.90;;;;;;5037674;28;20041;-96
2022/07/18 00:31:20;;;;;;;;;;;24.00;67.60;;;;;;5037285;28;19941;-95
2022/07/18 00:33:45;;;;;;;;;;;23.90;68.30;;;;;;5036827;28;20000;-96
2022/07/18 00:36:11;;;;;;;;;;;23.90;69.00;;;;;;5037212;28;20381;-96
2022/07/18 00:38:37;;;;;;;;;;;23.80;69.00;;;;;;5036928;28;19943;-96
2022/07/18 00:41:03;;;;;;;;;;;23.70;69.50;;;;;;5037386;28;19942;-96
2022/07/18 00:43:28;;;;;;;;;;;23.50;69.80;;;;;;5036867;28;20390;-96
2022/07/18 00:45:54;;;;;;;;;;;23.30;69.70;;;;;;5037409;28;20332;-96
2022/07/18 00:48:20;;;;;;;;;;;23.20;69.60;;;;;;5037062;28;19942;-96
2022/07/18 00:50:46;;;;;;;;;;;23.00;71.00;;;;;;5037028;28;19951;-96
2022/07/18 00:53:11;;;;;;;;;;;22.90;72.30;;;;;;5036884;28;20075;-96
2022/07/18 00:55:38;;;;;;;;;;;22.80;71.40;;;;;;5036907;28;20030;-96
2022/07/18 00:58:03;;;;;;;;;;;22.80;71.10;;;;;;5037082;28;19951;-96
2022/07/18 01:03:13;;;;;;;;;;;23.00;70.80;;;;;;5036791;28;19949;-96
2022/07/18 01:05:39;;;;;;;;;;;23.10;70.10;;;;;;5036235;28;19937;-96
2022/07/18 01:08:05;;;;;;;;;;;23.20;69.80;;;;;;5036379;28;19938;-96
2022/07/18 01:10:30;;;;;;;;;;;23.20;70.60;;;;;;5036655;28;19952;-96
2022/07/18 01:12:56;;;;;;;;;;;23.30;71.30;;;;;;5034949;28;20306;-96
2022/07/18 01:15:21;;;;;;;;;;;23.20;71.50;;;;;;5036856;28;20001;-96
2022/07/18 01:17:49;;;;;;;;;;;23.20;73.70;;;;;;5036219;28;19944;-96
2022/07/18 01:20:14;;;;;;;;;;;23.00;73.90;;;;;;5036421;28;19936;-96
2022/07/18 01:22:41;;;;;;;;;;;22.80;74.30;;;;;;5036091;28;20423;-96
2022/07/18 01:25:08;;;;;;;;;;;22.90;74.10;;;;;;5036373;28;19941;-96
2022/07/18 01:27:33;;;;;;;;;;;22.80;74.80;;;;;;5036022;28;19936;-96
2022/07/18 01:29:59;;;;;;;;;;;22.80;74.90;;;;;;5036307;28;20048;-96
2022/07/18 01:32:25;;;;;;;;;;;22.80;73.10;;;;;;5035699;28;19974;-96
2022/07/18 01:34:50;;;;;;;;;;;22.80;71.70;;;;;;5035951;28;19942;-96
2022/07/18 01:37:16;;;;;;;;;;;22.80;68.80;;;;;;5036361;28;19965;-96
2022/07/18 01:39:42;;;;;;;;;;;22.80;67.70;;;;;;5035760;28;19946;-96
2022/07/18 01:42:09;;;;;;;;;;;22.90;68.10;;;;;;5036044;28;19968;-96
2022/07/18 01:44:35;;;;;;;;;;;23.00;71.40;;;;;;5035788;28;19952;-96
2022/07/18 01:47:01;;;;;;;;;;;23.10;72.40;;;;;;5035962;28;19950;-96
2022/07/18 01:49:28;;;;;;;;;;;23.00;70.80;;;;;;5035578;28;19984;-95
2022/07/18 01:51:54;;;;;;;;;;;22.90;72.10;;;;;;5035823;28;19938;-96
2022/07/18 01:54:20;;;;;;;;;;;22.80;72.10;;;;;;5035428;28;20025;-95
2022/07/18 01:56:45;;;;;;;;;;;22.80;72.90;;;;;;5035369;28;19937;-96
2022/07/18 01:59:11;;;;;;;;;;;22.70;73.70;;;;;;5035776;28;20032;-95
2022/07/18 02:01:37;;;;;;;;;;;22.60;74.10;;;;;;5035403;28;20075;-95
2022/07/18 02:04:02;;;;;;;;;;;22.70;73.60;;;;;;5035428;28;19949;-96
2022/07/18 02:06:28;;;;;;;;;;;22.70;73.30;;;;;;5035616;28;19962;-95
2022/07/18 02:08:53;;;;;;;;;;;22.70;73.20;;;;;;5035215;28;19990;-96
2022/07/18 02:11:19;;;;;;;;;;;22.80;71.10;;;;;;5035754;28;20033;-96
2022/07/18 02:13:44;;;;;;;;;;;22.90;69.40;;;;;;5034648;28;20334;-96
2022/07/18 02:16:10;;;;;;;;;;;23.00;66.30;;;;;;5035046;28;19941;-96
2022/07/18 02:18:35;;;;;;;;;;;23.20;63.70;;;;;;5034151;28;19945;-96
2022/07/18 02:21:01;;;;;;;;;;;23.30;61.90;;;;;;5034860;28;19946;-96
2022/07/18 02:23:27;;;;;;;;;;;23.50;60.70;;;;;;5034353;28;20379;-96
2022/07/18 02:25:52;;;;;;;;;;;23.60;59.90;;;;;;5034913;28;19968;-96
2022/07/18 02:28:18;;;;;;;;;;;23.80;59.00;;;;;;5035144;28;20010;-96
2022/07/18 02:30:44;;;;;;;;;;;23.90;58.50;;;;;;5034648;28;20073;-95
2022/07/18 02:33:09;;;;;;;;;;;24.00;58.00;;;;;;5034946;28;19980;-96
2022/07/18 02:35:35;;;;;;;;;;;24.10;57.90;;;;;;5034904;28;19958;-96
2022/07/18 02:38:00;;;;;;;;;;;24.20;58.00;;;;;;5034456;28;19937;-96
2022/07/18 02:40:26;;;;;;;;;;;24.30;57.00;;;;;;5034954;28;20362;-96
2022/07/18 02:42:52;;;;;;;;;;;24.30;56.30;;;;;;5034339;28;19945;-96
2022/07/18 02:45:17;;;;;;;;;;;24.30;56.20;;;;;;5034410;28;20399;-96
2022/07/18 02:47:43;;;;;;;;;;;24.40;55.70;;;;;;5034598;28;20035;-96
2022/07/18 02:50:09;;;;;;;;;;;24.40;55.40;;;;;;5035011;28;19945;-96
2022/07/18 02:52:35;;;;;;;;;;;24.40;54.80;;;;;;5034351;28;20026;-96
2022/07/18 02:55:01;;;;;;;;;;;24.50;54.80;;;;;;5034378;28;20454;-96
2022/07/18 02:57:27;;;;;;;;;;;24.50;54.40;;;;;;5034255;28;19962;-96
2022/07/18 02:59:52;;;;;;;;;;;24.50;54.20;;;;;;5034650;28;19989;-96
2022/07/18 03:02:18;;;;;;;;;;;24.50;54.10;;;;;;5034353;28;19946;-96
2022/07/18 03:04:44;;;;;;;;;;;24.50;53.90;;;;;;5034805;28;20381;-96
2022/07/18 03:07:09;;;;;;;;;;;24.60;53.70;;;;;;5034512;28;19935;-96
2022/07/18 03:09:35;;;;;;;;;;;24.60;53.80;;;;;;5034819;28;19941;-96
2022/07/18 03:12:00;;;;;;;;;;;24.60;53.60;;;;;;5034115;28;20287;-96
2022/07/18 03:14:26;;;;;;;;;;;24.60;53.60;;;;;;5034669;28;19981;-95
2022/07/18 03:16:52;;;;;;;;;;;24.60;54.10;;;;;;5034062;28;20316;-96
2022/07/18 03:19:17;;;;;;;;;;;24.60;55.10;;;;;;5034320;28;20042;-96
2022/07/18 03:21:43;;;;;;;;;;;24.60;56.30;;;;;;5033987;28;19945;-96
2022/07/18 03:24:10;;;;;;;;;;;24.70;55.90;;;;;;5034279;28;19945;-96
2022/07/18 03:26:36;;;;;;;;;;;24.70;54.70;;;;;;5033857;28;19945;-96
2022/07/18 03:29:02;;;;;;;;;;;24.70;55.50;;;;;;5032489;28;20380;-96
2022/07/18 03:31:27;;;;;;;;;;;24.70;55.80;;;;;;5034256;28;19937;-96
2022/07/18 03:33:53;;;;;;;;;;;24.70;55.20;;;;;;5032232;28;20495;-96
2022/07/18 03:36:18;;;;;;;;;;;24.70;54.60;;;;;;5033847;28;20047;-96
2022/07/18 03:38:44;;;;;;;;;;;24.70;54.20;;;;;;5032542;28;20048;-96
2022/07/18 03:41:10;;;;;;;;;;;24.70;54.50;;;;;;5034375;28;19990;-96
2022/07/18 03:43:36;;;;;;;;;;;24.70;53.90;;;;;;5033692;28;19973;-96
2022/07/18 03:46:02;;;;;;;;;;;24.80;54.00;;;;;;5032400;28;19942;-96
2022/07/18 03:48:27;;;;;;;;;;;24.80;53.70;;;;;;5033976;28;19957;-96
2022/07/18 03:50:53;;;;;;;;;;;24.80;53.30;;;;;;5033660;28;19995;-96
2022/07/18 03:53:18;;;;;;;;;;;24.80;53.50;;;;;;5033949;28;19962;-96
2022/07/18 03:55:44;;;;;;;;;;;24.80;54.00;;;;;;5033753;28;20018;-96
2022/07/18 03:58:10;;;;;;;;;;;24.80;53.50;;;;;;5032370;28;20322;-96
2022/07/18 04:00:35;;;;;;;;;;;24.90;53.50;;;;;;5033935;28;19944;-96
2022/07/18 04:03:01;;;;;;;;;;;24.90;52.60;;;;;;5033610;28;20040;-96
2022/07/18 04:05:26;;;;;;;;;;;24.90;52.50;;;;;;5032327;28;20324;-96
2022/07/18 04:07:52;;;;;;;;;;;24.90;52.50;;;;;;5034115;28;19944;-96
2022/07/18 04:10:17;;;;;;;;;;;24.90;52.50;;;;;;5033843;28;19940;-96
2022/07/18 04:12:53;;;;;;;;;;;24.90;52.40;;;;;;5033720;28;19944;-96
2022/07/18 04:15:20;;;;;;;;;;;24.90;52.20;;;;;;5033589;28;19940;-96
2022/07/18 04:17:45;;;;;;;;;;;25.00;52.10;;;;;;5033754;28;20391;-96
2022/07/18 04:20:11;;;;;;;;;;;25.00;52.30;;;;;;5033754;28;19943;-96
2022/07/18 04:23:03;;;;;;;;;;;25.10;52.90;;;;;;5032138;28;19943;-96
2022/07/18 04:25:33;;;;;;;;;;;25.10;52.40;;;;;;5031225;28;19939;-96
2022/07/18 04:27:59;;;;;;;;;;;25.10;51.80;;;;;;5033685;28;20025;-96
2022/07/18 04:30:26;;;;;;;;;;;25.10;52.00;;;;;;5033636;28;19987;-95
2022/07/18 04:32:52;;;;;;;;;;;25.00;52.10;;;;;;5033400;28;19993;-95
2022/07/18 04:35:17;;;;;;;;;;;25.00;52.00;;;;;;5033593;28;19936;-96
2022/07/18 04:37:43;;;;;;;;;;;25.00;52.10;;;;;;5033185;28;20393;-96
2022/07/18 04:40:09;;;;;;;;;;;25.00;52.20;;;;;;5033834;28;19964;-96
2022/07/18 04:42:35;;;;;;;;;;;25.00;52.20;;;;;;5036892;28;19936;-96
2022/07/18 04:45:01;;;;;;;;;;;25.00;52.50;;;;;;5037135;28;19987;-96
2022/07/18 04:47:27;;;;;;;;;;;24.90;52.20;;;;;;5036785;28;19944;-96
2022/07/18 04:49:53;;;;;;;;;;;25.00;52.10;;;;;;5037058;28;20036;-96
2022/07/18 04:52:19;;;;;;;;;;;25.10;52.40;;;;;;5035472;28;20025;-96
2022/07/18 04:54:44;;;;;;;;;;;25.00;52.30;;;;;;5036930;28;19972;-95
2022/07/18 04:57:11;;;;;;;;;;;25.10;52.40;;;;;;5036732;28;19938;-96
2022/07/18 04:59:37;;;;;;;;;;;25.10;52.30;;;;;;5036721;28;19934;-96
2022/07/18 05:02:03;;;;;;;;;;;25.10;52.20;;;;;;5036797;28;20030;-96
2022/07/18 05:04:29;;;;;;;;;;;25.20;52.30;;;;;;5036806;28;20357;-96
2022/07/18 05:06:54;;;;;;;;;;;25.20;52.00;;;;;;5036443;28;19940;-96
2022/07/18 05:09:20;;;;;;;;;;;25.20;51.60;;;;;;5035140;28;19968;-96
2022/07/18 05:11:45;;;;;;;;;;;25.20;51.30;;;;;;5036593;28;19942;-96
2022/07/18 05:14:11;;;;;;;;;;;25.20;52.00;;;;;;5036758;28;19971;-96
2022/07/18 05:16:36;;;;;;;;;;;25.30;52.00;;;;;;5036094;28;20031;-96
2022/07/18 05:19:02;;;;;;;;;;;25.30;51.60;;;;;;5036159;28;19950;-96
2022/07/18 05:21:28;;;;;;;;;;;25.30;52.00;;;;;;5036461;28;19941;-96
2022/07/18 05:23:53;;;;;;;;;;;25.40;52.00;;;;;;5036375;28;19987;-96
2022/07/18 05:26:19;;;;;;;;;;;25.50;51.80;;;;;;5036095;28;19943;-96
2022/07/18 05:28:44;;;;;;;;;;;25.50;51.80;;;;;;5036630;28;19936;-96
2022/07/18 05:31:11;;;;;;;;;;;25.60;51.40;;;;;;5036038;28;19943;-96
2022/07/18 05:33:36;;;;;;;;;;;25.70;51.20;;;;;;5035406;28;19986;-96
2022/07/18 05:36:02;;;;;;;;;;;25.70;51.40;;;;;;5036024;28;19965;-96
2022/07/18 05:38:27;;;;;;;;;;;25.80;50.90;;;;;;5036295;28;20009;-96
2022/07/18 05:40:53;;;;;;;;;;;25.80;51.10;;;;;;5036027;28;19942;-96
2022/07/18 05:43:18;;;;;;;;;;;25.80;50.90;;;;;;5036229;28;19940;-96
2022/07/18 05:45:44;;;;;;;;;;;25.80;51.10;;;;;;5035427;28;20108;-96
2022/07/18 05:48:10;;;;;;;;;;;25.80;51.10;;;;;;5035321;28;19972;-96
2022/07/18 05:50:35;;;;;;;;;;;25.80;50.90;;;;;;5035696;28;19945;-96
2022/07/18 05:53:01;;;;;;;;;;;25.80;50.80;;;;;;5035546;28;19973;-96
2022/07/18 05:55:26;;;;;;;;;;;25.80;50.70;;;;;;5035399;28;20461;-96
2022/07/18 05:57:53;;;;;;;;;;;25.80;51.00;;;;;;5034866;28;19953;-96
2022/07/18 06:00:18;;;;;;;;;;;25.80;50.70;;;;;;5035537;28;19977;-96
2022/07/18 06:02:46;;;;;;;;;;;25.80;50.70;;;;;;5035664;28;19939;-96
2022/07/18 06:05:12;;;;;;;;;;;25.80;50.60;;;;;;5035320;28;19940;-96
2022/07/18 06:07:37;;;;;;;;;;;25.80;50.80;;;;;;5035255;28;20014;-96
2022/07/18 06:10:03;;;;;;;;;;;25.90;50.60;;;;;;5035806;28;19937;-96
2022/07/18 06:12:32;;;;;;;;;;;26.00;50.90;;;;;;5035275;28;19963;-96
2022/07/18 06:14:58;;;;;;;;;;;26.10;50.50;;;;;;5035114;28;19957;-96
2022/07/18 06:17:24;;;;;;;;;;;26.20;50.10;;;;;;5035033;28;20329;-96
2022/07/18 06:19:50;;;;;;;;;;;26.30;49.90;;;;;;5035007;28;19966;-96
2022/07/18 06:22:16;;;;;;;;;;;26.40;50.00;;;;;;5035211;28;20401;-96
2022/07/18 06:24:41;;;;;;;;;;;26.50;49.70;;;;;;5034956;28;19945;-96
2022/07/18 06:27:07;;;;;;;;;;;26.60;49.20;;;;;;5029707;28;19963;-95
2022/07/18 06:29:32;;;;;;;;;;;26.70;48.80;;;;;;5034743;28;19954;-95
2022/07/18 06:31:58;;;;;;;;;;;26.80;48.80;;;;;;5034920;28;19951;-96
2022/07/18 06:34:23;;;;;;;;;;;26.80;48.10;;;;;;5034339;28;20548;-95
2022/07/18 06:36:49;;;;;;;;;;;26.90;48.10;;;;;;5034606;28;19962;-96
2022/07/18 06:39:18;;;;;;;;;;;27.00;48.40;;;;;;5034584;28;19944;-96
2022/07/18 06:41:44;;;;;;;;;;;27.00;49.00;;;;;;5034765;28;19945;-96
2022/07/18 06:44:09;;;;;;;;;;;27.10;47.90;;;;;;5034647;28;19937;-96
2022/07/18 06:46:36;;;;;;;;;;;27.00;48.60;;;;;;5034816;28;19941;-95
2022/07/18 06:49:02;;;;;;;;;;;27.00;48.70;;;;;;5034385;28;19935;-96
2022/07/18 06:51:28;;;;;;;;;;;26.90;49.10;;;;;;5034492;28;19971;-96
2022/07/18 06:53:53;;;;;;;;;;;26.90;49.50;;;;;;5034333;28;20409;-95
2022/07/18 06:56:19;;;;;;;;;;;26.90;49.10;;;;;;5034259;28;20370;-96
2022/07/18 06:58:48;;;;;;;;;;;26.80;48.70;;;;;;5034602;28;19937;-95
2022/07/18 07:01:14;;;;;;;;;;;26.90;48.20;;;;;;5034354;28;19979;-96
2022/07/18 07:03:40;;;;;;;;;;;26.90;48.30;;;;;;5033569;28;19989;-96
2022/07/18 07:06:05;;;;;;;;;;;27.00;48.00;;;;;;5034320;28;20417;-96
2022/07/18 07:08:31;;;;;;;;;;;27.10;48.30;;;;;;5034083;28;19947;-96
2022/07/18 07:10:57;;;;;;;;;;;27.10;48.10;;;;;;5033646;28;19946;-96
2022/07/18 07:13:22;;;;;;;;;;;27.20;47.40;;;;;;5034058;28;20022;-96
2022/07/18 07:15:48;;;;;;;;;;;27.20;48.10;;;;;;5034021;28;19942;-96
2022/07/18 07:18:13;;;;;;;;;;;27.30;48.20;;;;;;5033994;28;19986;-96
2022/07/18 07:20:39;;;;;;;;;;;27.40;47.60;;;;;;5034046;28;20433;-96
2022/07/18 07:23:07;;;;;;;;;;;27.60;47.50;;;;;;5034060;28;20038;-96
2022/07/18 07:25:32;;;;;;;;;;;27.60;47.30;;;;;;5034095;28;20426;-96
2022/07/18 07:27:58;;;;;;;;;;;27.70;47.20;;;;;;5033341;28;19939;-96
2022/07/18 07:30:24;;;;;;;;;;;27.80;46.40;;;;;;5033896;28;19948;-95
2022/07/18 07:32:50;;;;;;;;;;;27.90;46.20;;;;;;5034714;22;20021;-96
2022/07/18 07:35:16;;;;;;;;;;;27.90;45.70;;;;;;5014492;28;19949;-96
2022/07/18 07:37:46;;;;;;;;;;;28.00;45.90;;;;;;5014201;28;20339;-96
2022/07/18 07:40:12;;;;;;;;;;;28.10;45.10;;;;;;5013685;28;20401;-96
2022/07/18 07:42:37;;;;;;;;;;;28.10;45.60;;;;;;5012795;28;19953;-96
2022/07/18 07:45:03;;;;;;;;;;;28.20;45.30;;;;;;5014211;28;20046;-95
2022/07/18 07:47:29;;;;;;;;;;;28.20;46.50;;;;;;5014325;28;20376;-96
2022/07/18 07:49:55;;;;;;;;;;;28.30;46.20;;;;;;5012435;28;19972;-96
2022/07/18 07:52:21;;;;;;;;;;;28.30;44.70;;;;;;5014020;28;20427;-95
2022/07/18 07:54:46;;;;;;;;;;;28.30;44.00;;;;;;5014481;28;19963;-96
2022/07/18 07:57:12;;;;;;;;;;;28.30;44.30;;;;;;5013800;28;20047;-95
2022/07/18 07:59:38;;;;;;;;;;;28.30;44.40;;;;;;5013921;28;19944;-95
2022/07/18 08:02:03;;;;;;;;;;;28.40;44.50;;;;;;5013871;28;19942;-96
2022/07/18 08:04:29;;;;;;;;;;;28.50;45.50;;;;;;5013845;28;19985;-96
2022/07/18 08:06:55;;;;;;;;;;;28.50;43.30;;;;;;5012517;28;19943;-96
2022/07/18 08:09:20;;;;;;;;;;;28.50;42.90;;;;;;5013552;28;20310;-96
2022/07/18 08:11:46;;;;;;;;;;;28.60;43.40;;;;;;5013636;28;19959;-96
2022/07/18 08:14:11;;;;;;;;;;;28.60;43.00;;;;;;5013622;28;19961;-96
2022/07/18 08:16:37;;;;;;;;;;;28.70;43.50;;;;;;5016065;28;20005;-96
2022/07/18 08:19:03;;;;;;;;;;;28.70;44.10;;;;;;5017365;28;19943;-95
2022/07/18 08:21:28;;;;;;;;;;;28.80;43.70;;;;;;5017393;28;19942;-96
2022/07/18 08:23:54;;;;;;;;;;;28.80;45.00;;;;;;5017794;28;20040;-95
2022/07/18 08:26:19;;;;;;;;;;;28.80;43.50;;;;;;5017383;28;19941;-95
2022/07/18 08:28:45;;;;;;;;;;;28.90;43.30;;;;;;5017774;28;19946;-95
2022/07/18 08:31:11;;;;;;;;;;;28.90;42.50;;;;;;5017913;28;19983;-96
2022/07/18 08:33:36;;;;;;;;;;;28.90;43.30;;;;;;5017243;28;19998;-96
2022/07/18 08:36:02;;;;;;;;;;;28.90;43.40;;;;;;5017556;28;20362;-96
2022/07/18 08:38:28;;;;;;;;;;;28.90;43.50;;;;;;5017479;28;19942;-96
2022/07/18 08:40:54;;;;;;;;;;;28.90;42.60;;;;;;5017149;28;19978;-95
2022/07/18 08:43:20;;;;;;;;;;;28.80;44.50;;;;;;5017368;28;19947;-95
2022/07/18 08:45:46;;;;;;;;;;;28.90;43.50;;;;;;5017032;28;19946;-96
2022/07/18 08:48:16;;;;;;;;;;;28.90;42.70;;;;;;5017226;28;19943;-95
2022/07/18 08:50:45;;;;;;;;;;;28.90;43.00;;;;;;5017360;28;19950;-95
2022/07/18 08:53:11;;;;;;;;;;;29.00;42.40;;;;;;5017014;28;19965;-96
2022/07/18 08:55:37;;;;;;;;;;;28.90;42.00;;;;;;5017070;28;19943;-96
2022/07/18 08:58:02;;;;;;;;;;;29.00;42.70;;;;;;5016785;28;19940;-96
2022/07/18 09:00:29;;;;;;;;;;;29.00;43.30;;;;;;5016814;28;20458;-96
2022/07/18 09:03:02;;;;;;;;;;;29.10;42.40;;;;;;5017089;28;20036;-96
2022/07/18 09:05:29;;;;;;;;;;;29.20;42.10;;;;;;5016720;28;19951;-96
2022/07/18 09:08:07;;;;;;;;;;;29.20;43.30;;;;;;5016947;28;19952;-96
2022/07/18 09:10:51;;;;;;;;;;;29.20;45.00;;;;;;5016943;28;19943;-96
2022/07/18 09:13:18;;;;;;;;;;;29.20;44.90;;;;;;5016770;28;19962;-96
2022/07/18 09:15:58;;;;;;;;;;;29.20;46.00;;;;;;5016524;28;19953;-96
2022/07/18 09:18:27;;;;;;;;;;;29.30;43.80;;;;;;5016999;28;19941;-96
2022/07/18 09:21:00;;;;;;;;;;;29.30;45.00;;;;;;5016723;28;19944;-96
2022/07/18 09:23:29;;;;;;;;;;;29.20;43.90;;;;;;5015097;28;19945;-96
2022/07/18 09:25:55;;;;;;;;;;;29.20;42.90;;;;;;5016137;28;19945;-95
2022/07/18 09:28:21;;;;;;;;;;;29.20;43.40;;;;;;5016214;28;20031;-96
2022/07/18 09:30:46;;;;;;;;;;;29.20;43.10;;;;;;5016551;28;19996;-96
2022/07/18 09:33:12;;;;;;;;;;;29.30;42.80;;;;;;5015821;28;19978;-96
2022/07/18 09:35:46;;;;;;;;;;;29.30;44.50;;;;;;5016103;28;20308;-96
2022/07/18 09:38:15;;;;;;;;;;;29.40;42.20;;;;;;5016297;28;19944;-96
2022/07/18 09:40:45;;;;;;;;;;;29.40;41.80;;;;;;5016343;28;19966;-95
2022/07/18 09:43:11;;;;;;;;;;;29.40;41.20;;;;;;5016002;28;19948;-96
2022/07/18 09:45:38;;;;;;;;;;;29.50;42.50;;;;;;5016276;28;19942;-95
2022/07/18 09:48:05;;;;;;;;;;;29.60;41.90;;;;;;5015912;28;19995;-95
2022/07/18 09:50:31;;;;;;;;;;;29.70;43.90;;;;;;5015957;28;19945;-96
2022/07/18 09:53:04;;;;;;;;;;;29.80;41.90;;;;;;5015990;28;20473;-96
2022/07/18 09:55:30;;;;;;;;;;;29.70;39.90;;;;;;5015737;28;19948;-96
2022/07/18 09:58:01;;;;;;;;;;;29.80;40.40;;;;;;5015072;28;19936;-95
2022/07/18 10:00:31;;;;;;;;;;;29.80;41.00;;;;;;5016226;28;19937;-95
2022/07/18 10:02:58;;;;;;;;;;;29.90;38.90;;;;;;5015594;28;19972;-96
2022/07/18 10:05:28;;;;;;;;;;;29.90;39.50;;;;;;5015096;28;19943;-96
2022/07/18 10:07:54;;;;;;;;;;;30.00;41.20;;;;;;5015807;28;19937;-95
2022/07/18 10:10:20;;;;;;;;;;;30.10;39.10;;;;;;5015560;28;19951;-96
2022/07/18 10:12:46;;;;;;;;;;;30.20;39.40;;;;;;5015391;28;19996;-95
2022/07/18 10:15:11;;;;;;;;;;;30.40;39.20;;;;;;5015009;28;19946;-96
2022/07/18 10:17:37;;;;;;;;;;;30.50;38.20;;;;;;5015416;28;19982;-95
2022/07/18 10:20:04;;;;;;;;;;;30.60;38.40;;;;;;5015142;28;20305;-95
2022/07/18 10:22:33;;;;;;;;;;;30.60;38.40;;;;;;5015182;28;20022;-96
2022/07/18 10:25:02;;;;;;;;;;;30.70;39.60;;;;;;5015324;28;19947;-96
2022/07/18 10:27:46;;;;;;;;;;;30.70;38.00;;;;;;5015159;28;20001;-96
2022/07/18 10:30:12;;;;;;;;;;;30.90;38.40;;;;;;5015102;28;19961;-95
2022/07/18 10:32:38;;;;;;;;;;;30.90;37.10;;;;;;5015221;28;20028;-96
2022/07/18 10:35:06;;;;;;;;;;;31.00;36.90;;;;;;5014992;28;20057;-95
2022/07/18 10:37:34;;;;;;;;;;;31.00;37.50;;;;;;5014919;28;19935;-95
2022/07/18 10:40:36;;;;;;;;;;;31.10;38.10;;;;;;5013337;28;20360;-96
2022/07/18 10:43:19;;;;;;;;;;;31.10;37.00;;;;;;4973944;28;19948;-96
2022/07/18 10:45:45;;;;;;;;;;;30.90;37.10;;;;;;5011390;28;20002;-96
2022/07/18 10:48:29;;;;;;;;;;;31.10;38.60;;;;;;5015411;28;19940;-96
2022/07/18 10:51:01;;;;;;;;;;;31.30;37.10;;;;;;5015048;28;19938;-96
2022/07/18 10:53:46;;;;;;;;;;;31.40;37.20;;;;;;5014973;28;20418;-95
2022/07/18 10:56:11;;;;;;;;;;;31.40;36.40;;;;;;5014797;28;19942;-96
2022/07/18 10:58:40;;;;;;;;;;;31.50;36.00;;;;;;5014754;28;19942;-96
2022/07/18 11:01:09;;;;;;;;;;;31.60;35.70;;;;;;5014758;28;20400;-95
2022/07/18 11:03:34;;;;;;;;;;;31.70;36.80;;;;;;5015160;28;20374;-96
2022/07/18 11:06:00;;;;;;;;;;;31.70;36.00;;;;;;5013288;28;20062;-96
2022/07/18 11:08:26;;;;;;;;;;;31.70;37.30;;;;;;5015106;28;19964;-96
2022/07/18 11:10:57;;;;;;;;;;;31.70;36.70;;;;;;5014470;28;20042;-95
2022/07/18 11:16:06;;;;;;;;;;;32.20;35.80;;;;;;5014966;28;20358;-96
2022/07/18 11:18:42;;;;;;;;;;;32.30;36.80;;;;;;5014681;28;19948;-96
2022/07/18 11:21:17;;;;;;;;;;;32.40;34.80;;;;;;5013079;28;20404;-95
2022/07/18 11:23:43;;;;;;;;;;;32.30;34.20;;;;;;5013052;28;20097;-95
2022/07/18 11:26:13;;;;;;;;;;;32.50;34.20;;;;;;5014343;28;19942;-95
2022/07/18 11:28:39;;;;;;;;;;;32.50;35.60;;;;;;5014140;28;20389;-96
2022/07/18 11:31:12;;;;;;;;;;;32.70;36.10;;;;;;5014277;28;20380;-96
2022/07/18 11:33:46;;;;;;;;;;;32.90;37.30;;;;;;5013910;28;20408;-96
2022/07/18 11:36:13;;;;;;;;;;;33.20;36.20;;;;;;5013970;28;20055;-96
2022/07/18 11:38:40;;;;;;;;;;;33.20;34.70;;;;;;5013982;28;20399;-96
2022/07/18 11:41:05;;;;;;;;;;;32.90;33.30;;;;;;5014456;28;20030;-94
2022/07/18 11:43:31;;;;;;;;;;;32.60;34.90;;;;;;5013950;28;20063;-95
2022/07/18 11:46:04;;;;;;;;;;;32.30;34.70;;;;;;5014064;28;20041;-96
2022/07/18 11:48:30;;;;;;;;;;;32.40;37.90;;;;;;5014295;28;19943;-96
2022/07/18 11:50:55;;;;;;;;;;;32.70;36.80;;;;;;5017804;28;20385;-96
2022/07/18 11:53:21;;;;;;;;;;;32.80;34.10;;;;;;5018128;28;19962;-95
2022/07/18 11:55:48;;;;;;;;;;;32.90;34.20;;;;;;5016606;28;19944;-96
2022/07/18 11:58:15;;;;;;;;;;;33.30;36.50;;;;;;5017958;28;19971;-96
2022/07/18 12:00:41;;;;;;;;;;;33.60;34.80;;;;;;5018174;28;20396;-96
2022/07/18 12:03:20;;;;;;;;;;;33.90;35.00;;;;;;5018140;28;20001;-96
2022/07/18 12:05:50;;;;;;;;;;;34.10;34.40;;;;;;5017949;28;19949;-95
2022/07/18 12:08:26;;;;;;;;;;;34.30;33.10;;;;;;5016437;28;20046;-96
2022/07/18 12:11:08;;;;;;;;;;;34.80;32.00;;;;;;5017758;28;19941;-96
2022/07/18 12:13:47;;;;;;;;;;;35.10;29.70;;;;;;5017672;28;19962;-95
2022/07/18 12:16:29;;;;;;;;;;;35.40;31.80;;;;;;5018292;28;19945;-96
2022/07/18 12:18:56;;;;;;;;;;;36.10;30.90;;;;;;5017588;28;19945;-96
2022/07/18 12:21:21;;;;;;;;;;;36.50;29.40;;;;;;5015935;28;20329;-96
2022/07/18 12:23:47;;;;;;;;;;;36.50;28.50;;;;;;5015902;28;19944;-96
2022/07/18 12:26:29;;;;;;;;;;;36.60;29.10;;;;;;5016196;28;20424;-96
2022/07/18 12:29:05;;;;;;;;;;;36.90;28.90;;;;;;5017409;28;20397;-96
2022/07/18 12:31:40;;;;;;;;;;;37.20;31.50;;;;;;5017459;28;19996;-96
2022/07/18 12:34:10;;;;;;;;;;;36.60;29.50;;;;;;5017055;28;20095;-96
2022/07/18 12:36:49;;;;;;;;;;;36.50;31.40;;;;;;5017030;28;19961;-96
2022/07/18 12:39:24;;;;;;;;;;;36.50;30.80;;;;;;5017363;28;19945;-96
2022/07/18 12:41:49;;;;;;;;;;;36.70;30.20;;;;;;5017224;28;19943;-96
2022/07/18 12:44:15;;;;;;;;;;;36.90;29.30;;;;;;5018607;28;19992;-96
2022/07/18 12:46:40;;;;;;;;;;;36.60;29.10;;;;;;5019814;28;19948;-96
2022/07/18 12:49:06;;;;;;;;;;;36.70;30.10;;;;;;5017412;28;19988;-96
2022/07/18 12:51:31;;;;;;;;;;;37.10;29.80;;;;;;5016922;28;20411;-96
2022/07/18 12:53:57;;;;;;;;;;;37.70;29.50;;;;;;5015501;28;19961;-95
2022/07/18 12:56:23;;;;;;;;;;;38.20;26.90;;;;;;5016651;28;19949;-96
2022/07/18 13:01:18;;;;;;;;;;;38.40;26.40;;;;;;5084447;28;19950;-96
2022/07/18 13:03:43;;;;;;;;;;;38.80;27.30;;;;;;5076609;28;19952;-96
2022/07/18 13:06:09;;;;;;;;;;;39.40;25.60;;;;;;5080368;28;19943;-96
2022/07/18 13:08:34;;;;;;;;;;;39.70;26.30;;;;;;5076451;28;19972;-96
2022/07/18 13:11:00;;;;;;;;;;;40.10;26.90;;;;;;5076296;28;20396;-96
2022/07/18 13:13:26;;;;;;;;;;;40.50;26.70;;;;;;5076229;28;20363;-96
2022/07/18 13:15:51;;;;;;;;;;;40.60;25.50;;;;;;5076267;28;19948;-96
2022/07/18 13:18:17;;;;;;;;;;;41.30;24.50;;;;;;5076455;28;20390;-96
2022/07/18 13:20:43;;;;;;;;;;;42.30;24.00;;;;;;5076084;28;20368;-96
2022/07/18 13:23:10;;;;;;;;;;;42.80;23.80;;;;;;5076130;28;20442;-96
2022/07/18 13:25:36;;;;;;;;;;;43.10;23.30;;;;;;5076266;28;19941;-96
2022/07/18 13:28:02;;;;;;;;;;;42.70;22.40;;;;;;5074800;28;19951;-96
2022/07/18 13:30:27;;;;;;;;;;;42.60;22.00;;;;;;5076521;28;19941;-96
2022/07/18 13:32:53;;;;;;;;;;;42.80;22.50;;;;;;5075971;28;20408;-96
2022/07/18 13:35:18;;;;;;;;;;;42.90;21.60;;;;;;5075837;28;19950;-96
2022/07/18 13:37:44;;;;;;;;;;;43.30;21.80;;;;;;5075582;28;20385;-96
2022/07/18 13:40:10;;;;;;;;;;;43.40;21.30;;;;;;5075372;28;19939;-96
2022/07/18 13:42:36;;;;;;;;;;;43.30;21.60;;;;;;5075184;28;20331;-96
2022/07/18 13:45:02;;;;;;;;;;;43.80;22.10;;;;;;5075490;28;20039;-96
2022/07/18 13:47:28;;;;;;;;;;;44.00;22.00;;;;;;5075715;28;19969;-96
2022/07/18 13:49:53;;;;;;;;;;;44.00;22.70;;;;;;5075822;28;19942;-95
2022/07/18 13:52:19;;;;;;;;;;;43.50;21.80;;;;;;5075492;28;19943;-96
2022/07/18 13:54:47;;;;;;;;;;;42.80;21.40;;;;;;5075422;28;20313;-96
2022/07/18 13:57:13;;;;;;;;;;;42.70;22.30;;;;;;5075240;28;19952;-96
2022/07/18 13:59:38;;;;;;;;;;;43.80;20.30;;;;;;5075284;28;19975;-96
2022/07/18 14:02:04;;;;;;;;;;;44.60;21.20;;;;;;5075312;28;19940;-96
2022/07/18 14:04:29;;;;;;;;;;;44.50;19.80;;;;;;5075358;28;19939;-96
2022/07/18 14:06:55;;;;;;;;;;;45.50;19.50;;;;;;5075286;28;20415;-96
2022/07/18 14:09:20;;;;;;;;;;;45.60;19.70;;;;;;5075259;28;19948;-96
2022/07/18 14:11:46;;;;;;;;;;;46.00;18.40;;;;;;5075145;28;19972;-96
2022/07/18 14:14:12;;;;;;;;;;;44.30;19.40;;;;;;5074241;28;19967;-96
2022/07/18 14:16:38;;;;;;;;;;;44.20;21.60;;;;;;5075340;28;19935;-96
2022/07/18 14:19:04;;;;;;;;;;;44.00;21.50;;;;;;5075154;28;19941;-96
2022/07/18 14:21:29;;;;;;;;;;;44.40;22.60;;;;;;5075303;28;20460;-96
2022/07/18 14:23:55;;;;;;;;;;;44.10;22.50;;;;;;5075005;28;19944;-96